Time;durP1;ratioP1;P1;durP2;ratioP2;P2;SDS_P1;SDS_P2;PMS_P1;PMS_P2;Temp;Humidity;BMP_temperature;BMP_pressure;BME280_temperature;BME280_humidity;BME280_pressure;Samples;Min_cycle;Max_cycle;Signal;HPM_P1;HPM_P2
2022/11/23 00:01:58;;;;;;;1.73;0.87;;;;;;;;;;4991030;28;20483;-70
2022/11/23 00:04:27;;;;;;;4.70;1.20;;;;;;;;;;4986710;28;20470;-69
2022/11/23 00:06:54;;;;;;;2.43;1.03;;;;;;;;;;4984660;28;20476;-71
2022/11/23 00:09:21;;;;;;;1.10;0.90;;;5.70;99.90;;;;;;4992777;28;20457;-70
2022/11/23 00:11:48;;;;;;;1.80;1.40;;;4.60;99.90;;;;;;4984455;28;20486;-70
2022/11/23 00:14:15;;;;;;;2.33;0.90;;;4.70;99.90;;;;;;4982142;28;20461;-70
2022/11/23 00:16:42;;;;;;;1.70;1.60;;;4.70;99.90;;;;;;4995221;28;20476;-70
2022/11/23 00:19:09;;;;;;;1.60;1.00;;;4.70;99.90;;;;;;4976838;28;20500;-70
2022/11/23 00:21:38;;;;;;;2.03;1.03;;;4.60;99.90;;;;;;4988446;28;20456;-69
2022/11/23 00:24:05;;;;;;;1.70;0.90;;;4.60;99.90;;;;;;4975679;28;20965;-69
2022/11/23 00:26:32;;;;;;;1.53;0.77;;;4.70;99.90;;;;;;4988586;28;20460;-69
2022/11/23 00:28:58;;;;;;;2.60;1.07;;;4.60;99.90;;;;;;4977682;28;20827;-71
2022/11/23 00:31:25;;;;;;;2.10;1.37;;;4.60;99.90;;;;;;4994441;28;20473;-70
2022/11/23 00:33:54;;;;;;;1.93;1.17;;;4.50;99.90;;;;;;4985983;28;20806;-69
2022/11/23 00:36:22;;;;;;;3.60;1.33;;;4.60;99.90;;;;;;4994550;28;20871;-69
2022/11/23 00:38:53;;;;;;;2.27;0.80;;;4.50;99.90;;;;;;4993539;28;20452;-69
2022/11/23 00:41:21;;;;;;;2.07;1.27;;;4.70;99.90;;;;;;4990750;28;20465;-69
2022/11/23 00:43:49;;;;;;;2.40;1.30;;;4.70;99.90;;;;;;4988859;28;20449;-69
2022/11/23 00:46:18;;;;;;;4.80;1.30;;;4.60;99.90;;;;;;4978796;28;20452;-69
2022/11/23 00:48:46;;;;;;;4.30;1.30;;;4.40;99.90;;;;;;4989292;28;20451;-69
2022/11/23 00:51:15;;;;;;;1.63;0.90;;;4.40;99.90;;;;;;4991990;28;20487;-69
2022/11/23 00:53:43;;;;;;;1.27;0.80;;;4.40;99.90;;;;;;4985786;28;20453;-69
2022/11/23 00:56:11;;;;;;;1.07;0.87;;;4.30;99.90;;;;;;4984333;28;20800;-69
2022/11/23 00:58:39;;;;;;;2.30;1.37;;;4.30;99.90;;;;;;4994351;28;20475;-69
2022/11/23 01:01:09;;;;;;;1.17;1.00;;;4.20;99.90;;;;;;4992961;28;20466;-69
2022/11/23 01:03:37;;;;;;;2.80;1.20;;;4.30;99.90;;;;;;4986670;28;20457;-69
2022/11/23 01:06:06;;;;;;;3.37;1.30;;;4.40;99.90;;;;;;4983998;28;20509;-69
2022/11/23 01:08:32;;;;;;;1.73;1.57;;;4.30;99.90;;;;;;4991904;28;20463;-69
2022/11/23 01:11:00;;;;;;;1.30;1.07;;;4.30;99.90;;;;;;4989296;28;20495;-69
2022/11/23 01:13:29;;;;;;;3.63;1.47;;;4.30;99.90;;;;;;4987183;28;20480;-69
2022/11/23 01:15:56;;;;;;;1.67;0.97;;;4.20;99.90;;;;;;4981880;28;20457;-69
2022/11/23 01:18:24;;;;;;;3.13;1.30;;;4.20;99.90;;;;;;4988703;28;20454;-69
2022/11/23 01:20:51;;;;;;;3.40;1.77;;;4.10;99.90;;;;;;4988209;28;20460;-69
2022/11/23 01:23:18;;;;;;;1.40;1.07;;;4.10;99.90;;;;;;4985879;28;20827;-69
2022/11/23 01:25:44;;;;;;;4.63;2.00;;;4.20;99.90;;;;;;4992055;28;20489;-68
2022/11/23 01:28:11;;;;;;;1.57;1.00;;;4.10;99.90;;;;;;4992742;28;20459;-69
2022/11/23 01:30:39;;;;;;;2.90;1.43;;;4.20;99.90;;;;;;4993139;28;20485;-69
2022/11/23 01:33:06;;;;;;;2.03;1.10;;;4.20;99.90;;;;;;4985978;28;20455;-69
2022/11/23 01:35:33;;;;;;;5.43;1.20;;;4.10;99.90;;;;;;4985797;28;20454;-69
2022/11/23 01:38:00;;;;;;;1.77;1.43;;;4.10;99.90;;;;;;4980010;28;20457;-69
2022/11/23 01:40:27;;;;;;;2.23;1.20;;;4.10;99.90;;;;;;4990527;28;20445;-68
2022/11/23 01:42:56;;;;;;;4.20;1.13;;;4.00;99.90;;;;;;4988266;28;20806;-69
2022/11/23 01:45:40;;;;;;;1.53;1.03;;;3.90;99.90;;;;;;4988871;28;20452;-69
2022/11/23 01:48:13;;;;;;;2.50;0.90;;;4.00;99.90;;;;;;4981285;28;20798;-69
2022/11/23 01:50:42;;;;;;;1.27;1.03;;;4.20;99.90;;;;;;4991068;28;20475;-68
2022/11/23 01:53:09;;;;;;;1.10;1.00;;;4.10;99.90;;;;;;4991922;28;20457;-69
2022/11/23 01:55:36;;;;;;;3.90;1.73;;;4.00;99.90;;;;;;4983561;28;20450;-69
2022/11/23 01:58:06;;;;;;;2.40;1.27;;;4.10;99.90;;;;;;4980236;28;20448;-69
2022/11/23 02:00:33;;;;;;;3.40;1.20;;;4.20;99.90;;;;;;4988223;28;20982;-69
2022/11/23 02:03:03;;;;;;;1.10;0.87;;;4.10;99.90;;;;;;4986448;28;20486;-69
2022/11/23 02:05:35;;;;;;;1.97;1.50;;;4.00;99.90;;;;;;4983987;28;20452;-69
2022/11/23 02:08:04;;;;;;;2.23;0.97;;;3.90;99.90;;;;;;4985780;28;20461;-69
2022/11/23 02:10:32;;;;;;;3.13;1.00;;;4.00;99.90;;;;;;4982275;28;20468;-69
2022/11/23 02:13:02;;;;;;;1.63;1.10;;;4.00;99.90;;;;;;4989535;28;20453;-69
2022/11/23 02:15:29;;;;;;;1.27;0.60;;;4.00;99.90;;;;;;4990324;28;20465;-69
2022/11/23 02:17:59;;;;;;;2.43;1.20;;;3.90;99.90;;;;;;4983919;28;20470;-69
2022/11/23 02:20:27;;;;;;;1.93;0.80;;;3.90;99.90;;;;;;4982350;28;20461;-69
2022/11/23 02:23:07;;;;;;;1.03;0.70;;;4.00;99.90;;;;;;4988206;28;20460;-69
2022/11/23 02:25:40;;;;;;;1.53;1.43;;;4.00;99.90;;;;;;4984578;28;21035;-69
2022/11/23 02:28:09;;;;;;;1.10;0.77;;;3.80;99.90;;;;;;4987295;28;20450;-69
2022/11/23 02:30:38;;;;;;;3.80;1.07;;;3.80;99.90;;;;;;4983037;28;20465;-69
2022/11/23 02:33:06;;;;;;;1.00;0.80;;;3.90;99.90;;;;;;4975488;28;20489;-69
2022/11/23 02:35:33;;;;;;;1.10;0.77;;;3.90;99.90;;;;;;4987088;28;20452;-69
2022/11/23 02:38:02;;;;;;;1.67;0.80;;;3.90;99.90;;;;;;4978807;28;20543;-69
2022/11/23 02:40:32;;;;;;;4.27;1.00;;;3.90;99.90;;;;;;4991440;28;20452;-69
2022/11/23 02:42:59;;;;;;;1.23;0.90;;;4.00;99.90;;;;;;4988907;28;20660;-69
2022/11/23 02:45:35;;;;;;;4.03;0.77;;;4.00;99.90;;;;;;4991741;28;20452;-69
2022/11/23 02:48:02;;;;;;;2.63;0.80;;;3.90;99.90;;;;;;4986843;28;20460;-69
2022/11/23 02:50:30;;;;;;;1.00;0.50;;;3.90;99.90;;;;;;4991300;28;20459;-69
2022/11/23 02:52:56;;;;;;;0.83;0.50;;;3.90;99.90;;;;;;4987129;28;20821;-69
2022/11/23 02:55:23;;;;;;;1.30;0.73;;;3.90;99.90;;;;;;4991515;28;20452;-69
2022/11/23 02:57:50;;;;;;;2.57;1.23;;;3.90;99.90;;;;;;4984893;28;20461;-69
2022/11/23 03:00:17;;;;;;;1.50;0.83;;;3.90;99.90;;;;;;4986392;28;20461;-69
2022/11/23 03:02:46;;;;;;;1.20;0.83;;;3.90;99.90;;;;;;4991605;28;20573;-69
2022/11/23 03:05:12;;;;;;;1.43;0.87;;;3.80;99.90;;;;;;4990268;28;20461;-69
2022/11/23 03:07:40;;;;;;;3.53;1.37;;;3.80;99.90;;;;;;4988769;28;20991;-68
2022/11/23 03:10:08;;;;;;;2.40;1.53;;;3.80;99.90;;;;;;4984544;28;20815;-69
2022/11/23 03:12:35;;;;;;;1.20;0.80;;;3.80;99.90;;;;;;4987024;28;20488;-69
2022/11/23 03:15:02;;;;;;;3.67;1.40;;;3.90;99.90;;;;;;4989936;28;20447;-69
2022/11/23 03:17:30;;;;;;;1.43;1.10;;;3.90;99.90;;;;;;4983850;28;20471;-71
2022/11/23 03:19:58;;;;;;;1.37;1.00;;;4.00;99.90;;;;;;4983691;28;20451;-69
2022/11/23 03:22:25;;;;;;;7.83;1.60;;;3.90;99.90;;;;;;4987790;28;20450;-69
2022/11/23 03:24:51;;;;;;;3.73;1.33;;;3.80;99.90;;;;;;4988048;28;20453;-69
2022/11/23 03:27:18;;;;;;;1.50;1.30;;;3.80;99.90;;;;;;4991334;28;20461;-69
2022/11/23 03:29:45;;;;;;;1.40;0.60;;;3.90;99.90;;;;;;4983185;28;20459;-69
2022/11/23 03:32:12;;;;;;;2.00;1.33;;;3.90;99.90;;;;;;4990353;28;21011;-69
2022/11/23 03:34:39;;;;;;;2.50;1.67;;;4.10;99.90;;;;;;4990799;28;20452;-69
2022/11/23 03:37:07;;;;;;;1.13;0.90;;;4.20;99.90;;;;;;4991570;28;20456;-69
2022/11/23 03:39:34;;;;;;;6.20;1.50;;;4.20;99.90;;;;;;4984912;28;20454;-69
2022/11/23 03:42:01;;;;;;;1.53;1.10;;;4.00;99.90;;;;;;4977122;28;20948;-69
2022/11/23 03:44:28;;;;;;;3.47;1.60;;;3.90;99.90;;;;;;4991228;28;20474;-69
2022/11/23 03:46:54;;;;;;;1.33;0.60;;;4.00;99.90;;;;;;4989149;28;20460;-69
2022/11/23 03:49:21;;;;;;;1.10;0.60;;;4.00;99.90;;;;;;4990180;28;20450;-69
2022/11/23 03:51:48;;;;;;;2.73;0.70;;;4.00;99.90;;;;;;4984721;28;20487;-69
2022/11/23 03:54:16;;;;;;;1.37;0.90;;;4.10;99.90;;;;;;4984367;28;20461;-69
2022/11/23 03:56:43;;;;;;;1.23;0.90;;;4.10;99.90;;;;;;4981086;28;20812;-69
2022/11/23 03:59:10;;;;;;;2.70;1.47;;;4.10;99.90;;;;;;4977459;28;20892;-70
2022/11/23 04:01:36;;;;;;;1.50;1.00;;;4.20;99.90;;;;;;4982077;28;20496;-69
2022/11/23 04:04:03;;;;;;;1.63;0.97;;;4.30;99.90;;;;;;4975914;28;20448;-70
2022/11/23 04:06:30;;;;;;;1.80;0.90;;;4.60;99.90;;;;;;4982986;28;20502;-70
2022/11/23 04:08:57;;;;;;;2.13;1.10;;;4.70;99.90;;;;;;4979446;28;20473;-70
2022/11/23 04:11:25;;;;;;;1.20;0.63;;;4.80;99.90;;;;;;4985805;28;20849;-70
2022/11/23 04:13:52;;;;;;;2.23;0.63;;;4.70;92.00;;;;;;4981491;28;20458;-69
2022/11/23 04:16:19;;;;;;;0.87;0.70;;;4.70;99.90;;;;;;4979243;28;20459;-69
2022/11/23 04:18:45;;;;;;;1.00;0.80;;;4.80;99.90;;;;;;4986262;28;20461;-68
2022/11/23 04:21:12;;;;;;;1.20;0.83;;;4.80;88.10;;;;;;4989982;28;20812;-69
2022/11/23 04:23:39;;;;;;;4.53;1.43;;;4.70;69.00;;;;;;4977428;28;20455;-69
2022/11/23 04:26:06;;;;;;;1.13;0.73;;;4.70;81.20;;;;;;4985218;28;20453;-69
2022/11/23 04:28:34;;;;;;;0.87;0.60;;;4.70;86.40;;;;;;4979360;28;20469;-70
2022/11/23 04:31:01;;;;;;;1.37;1.27;;;4.60;92.90;;;;;;4989506;28;20470;-69
2022/11/23 04:33:27;;;;;;;1.97;0.77;;;4.70;78.70;;;;;;4984192;28;20495;-71
2022/11/23 04:35:54;;;;;;;1.33;0.80;;;4.70;64.30;;;;;;4978347;28;20822;-69
2022/11/23 04:38:21;;;;;;;4.20;1.50;;;4.60;57.80;;;;;;4988147;28;20452;-70
2022/11/23 04:40:48;;;;;;;0.87;0.63;;;4.60;86.80;;;;;;4986350;28;20451;-69
2022/11/23 04:43:15;;;;;;;1.30;1.17;;;4.60;99.90;;;;;;4977904;28;20461;-70
2022/11/23 04:45:44;;;;;;;0.80;0.50;;;4.60;99.90;;;;;;4989400;28;20457;-69
2022/11/23 04:48:11;;;;;;;2.10;0.90;;;4.50;99.90;;;;;;4986038;28;20450;-69
2022/11/23 04:50:38;;;;;;;0.93;0.60;;;4.50;99.90;;;;;;4988795;28;20450;-69
2022/11/23 04:53:05;;;;;;;2.50;0.93;;;4.40;99.90;;;;;;4988014;28;20482;-70
2022/11/23 04:55:32;;;;;;;1.30;1.00;;;4.30;99.90;;;;;;4987694;28;20453;-70
2022/11/23 04:57:59;;;;;;;2.10;1.40;;;4.30;99.90;;;;;;4981592;28;20581;-70
2022/11/23 05:00:26;;;;;;;1.90;0.97;;;4.20;99.90;;;;;;4982091;28;20456;-70
2022/11/23 05:02:54;;;;;;;1.77;0.73;;;4.40;99.90;;;;;;4992393;28;20481;-70
2022/11/23 05:05:21;;;;;;;5.63;1.20;;;4.30;99.90;;;;;;4977827;28;20460;-70
2022/11/23 05:07:48;;;;;;;0.90;0.80;;;4.40;99.90;;;;;;4982107;28;20865;-69
2022/11/23 05:10:14;;;;;;;6.07;0.97;;;4.40;99.90;;;;;;4982749;28;20491;-69
2022/11/23 05:12:41;;;;;;;1.17;0.80;;;4.40;99.90;;;;;;4982852;28;20490;-69
2022/11/23 05:15:11;;;;;;;3.30;1.13;;;4.40;99.90;;;;;;4979307;28;20462;-70
2022/11/23 05:17:38;;;;;;;2.73;1.10;;;4.50;99.90;;;;;;4982261;28;20452;-70
2022/11/23 05:20:08;;;;;;;1.40;0.90;;;4.70;99.90;;;;;;4986512;28;20505;-70
2022/11/23 05:22:34;;;;;;;1.27;0.80;;;4.80;66.10;;;;;;4987780;28;20475;-70
2022/11/23 05:25:01;;;;;;;8.20;0.80;;;4.60;99.90;;;;;;4978965;28;20460;-70
2022/11/23 05:27:28;;;;;;;0.80;0.60;;;4.60;99.90;;;;;;4984104;28;20821;-69
2022/11/23 05:29:55;;;;;;;3.23;1.13;;;4.60;99.90;;;;;;4990007;28;20453;-70
2022/11/23 05:32:21;;;;;;;5.73;0.70;;;4.60;99.90;;;;;;4974186;28;20482;-69
2022/11/23 05:34:48;;;;;;;1.13;0.80;;;4.60;99.90;;;;;;4986939;28;20473;-69
2022/11/23 05:37:17;;;;;;;5.67;1.50;;;4.80;99.90;;;;;;4983042;28;20456;-69
2022/11/23 05:39:43;;;;;;;3.27;0.90;;;4.70;99.90;;;;;;4982246;28;20818;-71
2022/11/23 05:42:10;;;;;;;0.90;0.80;;;4.60;99.90;;;;;;4993305;28;20453;-71
2022/11/23 05:44:37;;;;;;;1.37;0.60;;;4.60;99.90;;;;;;4978147;28;20969;-75
2022/11/23 05:47:04;;;;;;;0.90;0.70;;;4.70;99.90;;;;;;4985285;28;20492;-72
2022/11/23 05:49:31;;;;;;;2.17;1.00;;;4.70;99.90;;;;;;4982410;28;20466;-69
2022/11/23 05:51:58;;;;;;;1.07;0.90;;;4.70;99.90;;;;;;4975121;28;20485;-69
2022/11/23 05:54:26;;;;;;;2.13;0.87;;;4.80;93.60;;;;;;4977060;28;20449;-69
2022/11/23 05:56:53;;;;;;;1.63;0.97;;;4.90;77.90;;;;;;4981537;28;20455;-71
2022/11/23 05:59:20;;;;;;;2.83;0.77;;;4.90;65.60;;;;;;4975048;28;20456;-69
2022/11/23 06:01:46;;;;;;;0.90;0.70;;;4.90;39.60;;;;;;4984831;28;20501;-72
2022/11/23 06:04:13;;;;;;;2.77;1.10;;;4.90;61.90;;;;;;4981576;28;20462;-71
2022/11/23 06:06:40;;;;;;;4.20;0.90;;;5.00;49.40;;;;;;4985679;28;20542;-71
2022/11/23 06:09:07;;;;;;;2.10;1.53;;;5.10;3.30;;;;;;4987771;28;20467;-72
2022/11/23 06:11:35;;;;;;;2.70;1.30;;;5.00;23.70;;;;;;4992785;28;20456;-72
2022/11/23 06:14:02;;;;;;;5.17;1.37;;;5.10;13.40;;;;;;4986446;28;20493;-71
2022/11/23 06:16:28;;;;;;;1.57;0.77;;;5.00;31.50;;;;;;4987290;28;20855;-72
2022/11/23 06:18:55;;;;;;;1.70;1.17;;;4.90;50.30;;;;;;4973570;28;20456;-71
2022/11/23 06:21:22;;;;;;;1.17;0.80;;;4.90;91.60;;;;;;4986850;28;20465;-70
2022/11/23 06:23:49;;;;;;;1.50;0.90;;;4.80;94.90;;;;;;4990234;28;20457;-68
2022/11/23 06:26:16;;;;;;;3.40;1.57;;;4.80;99.90;;;;;;4987110;28;20453;-70
2022/11/23 06:28:44;;;;;;;1.40;1.00;;;4.80;99.90;;;;;;4984933;28;20457;-70
2022/11/23 06:31:11;;;;;;;4.53;1.20;;;4.80;99.90;;;;;;4985152;28;20469;-70
2022/11/23 06:33:38;;;;;;;2.90;1.63;;;4.70;99.90;;;;;;4990201;28;20496;-71
2022/11/23 06:36:06;;;;;;;1.43;0.83;;;4.60;99.90;;;;;;4990874;28;20466;-70
2022/11/23 06:38:32;;;;;;;1.83;1.10;;;4.50;99.90;;;;;;4988128;28;20460;-71
2022/11/23 06:41:00;;;;;;;1.80;0.83;;;4.50;99.90;;;;;;4988461;28;20454;-70
2022/11/23 06:43:27;;;;;;;5.03;1.43;;;4.40;99.90;;;;;;4992628;28;20454;-70
2022/11/23 06:45:55;;;;;;;7.47;2.87;;;4.30;99.90;;;;;;4982433;28;20457;-71
2022/11/23 06:48:23;;;;;;;3.70;0.77;;;4.30;99.90;;;;;;4977620;28;20449;-70
2022/11/23 06:50:50;;;;;;;0.90;0.63;;;4.30;99.90;;;;;;4984554;28;20454;-69
2022/11/23 06:53:17;;;;;;;4.97;0.93;;;4.30;99.90;;;;;;4987231;28;20484;-71
2022/11/23 06:55:43;;;;;;;5.40;1.30;;;4.30;99.90;;;;;;4989594;28;20484;-68
2022/11/23 06:58:10;;;;;;;7.27;1.23;;;4.30;99.90;;;;;;4972204;28;20878;-69
2022/11/23 07:00:38;;;;;;;0.77;0.60;;;4.20;99.90;;;;;;4987920;28;20467;-70
2022/11/23 07:03:06;;;;;;;0.90;0.70;;;4.10;99.90;;;;;;4992285;28;20484;-69
2022/11/23 07:05:33;;;;;;;1.13;0.83;;;4.20;99.90;;;;;;4975950;28;20958;-69
2022/11/23 07:07:59;;;;;;;3.30;0.93;;;4.10;99.90;;;;;;4979419;28;20473;-69
2022/11/23 07:10:26;;;;;;;1.50;0.77;;;4.20;99.90;;;;;;4977179;28;20450;-69
2022/11/23 07:12:53;;;;;;;1.00;0.70;;;4.20;99.90;;;;;;4982006;28;20494;-69
2022/11/23 07:15:20;;;;;;;4.53;0.90;;;4.20;99.90;;;;;;4975621;28;20450;-69
2022/11/23 07:17:47;;;;;;;3.60;1.47;;;4.20;99.90;;;;;;4972649;28;20457;-69
2022/11/23 07:20:15;;;;;;;2.73;0.90;;;4.10;99.90;;;;;;4985820;28;20453;-69
2022/11/23 07:22:42;;;;;;;1.17;0.83;;;4.10;99.90;;;;;;4972607;28;20465;-68
2022/11/23 07:25:10;;;;;;;1.50;1.10;;;4.10;99.90;;;;;;4984654;28;20456;-68
2022/11/23 07:27:37;;;;;;;6.93;1.53;;;4.00;99.90;;;;;;4972897;28;20457;-69
2022/11/23 07:30:05;;;;;;;1.20;0.73;;;4.10;99.90;;;;;;4984951;28;20472;-69
2022/11/23 07:32:32;;;;;;;2.40;1.10;;;4.10;99.90;;;;;;4973089;28;20492;-70
2022/11/23 07:34:59;;;;;;;5.63;1.57;;;4.10;99.90;;;;;;4984696;28;20793;-68
2022/11/23 07:37:27;;;;;;;1.80;1.03;;;4.10;99.90;;;;;;4972510;28;20555;-70
2022/11/23 07:39:55;;;;;;;2.47;1.20;;;4.00;99.90;;;;;;4988268;28;20539;-71
2022/11/23 07:42:22;;;;;;;2.33;1.53;;;4.00;99.90;;;;;;4981007;28;20454;-69
2022/11/23 07:44:49;;;;;;;3.13;1.40;;;4.00;99.90;;;;;;4984399;28;20463;-70
2022/11/23 07:47:15;;;;;;;1.50;1.00;;;4.00;99.90;;;;;;4972812;28;20446;-68
2022/11/23 07:49:42;;;;;;;2.87;1.73;;;4.10;99.90;;;;;;4984925;28;20458;-70
2022/11/23 07:52:09;;;;;;;2.43;1.37;;;4.10;99.90;;;;;;4972459;28;20450;-68
2022/11/23 07:54:38;;;;;;;6.73;1.47;;;4.20;99.90;;;;;;4985021;28;20530;-70
2022/11/23 07:57:04;;;;;;;1.57;1.23;;;4.20;99.90;;;;;;4972524;28;20799;-68
2022/11/23 07:59:31;;;;;;;1.57;1.20;;;4.20;99.90;;;;;;4985625;28;20454;-68
2022/11/23 08:01:58;;;;;;;3.17;1.17;;;4.20;99.90;;;;;;4984610;28;20487;-68
2022/11/23 08:04:25;;;;;;;1.43;0.90;;;4.30;99.90;;;;;;4972230;28;20462;-68
2022/11/23 08:06:53;;;;;;;2.67;1.20;;;4.30;99.90;;;;;;4984652;28;20469;-69
2022/11/23 08:09:20;;;;;;;1.10;0.80;;;4.40;99.90;;;;;;4978168;28;20484;-68
2022/11/23 08:11:48;;;;;;;1.17;1.00;;;4.50;99.90;;;;;;4976511;28;20456;-67
2022/11/23 08:14:15;;;;;;;4.87;1.60;;;4.60;99.90;;;;;;4983544;28;20499;-68
2022/11/23 08:16:41;;;;;;;6.30;2.07;;;4.60;99.90;;;;;;4972969;28;20466;-67
2022/11/23 08:19:08;;;;;;;4.47;1.60;;;4.70;99.90;;;;;;4983894;28;20814;-68
2022/11/23 08:21:35;;;;;;;2.17;1.40;;;4.70;99.90;;;;;;4973929;28;20546;-69
2022/11/23 08:24:02;;;;;;;1.70;1.23;;;4.80;99.90;;;;;;4982480;28;20549;-69
2022/11/23 08:26:29;;;;;;;11.00;1.70;;;4.90;99.90;;;;;;4973412;28;20464;-68
2022/11/23 08:28:57;;;;;;;1.77;1.37;;;5.00;99.90;;;;;;4983092;28;20452;-68
2022/11/23 08:31:24;;;;;;;3.83;1.53;;;5.20;99.90;;;;;;4973851;28;20463;-68
2022/11/23 08:33:51;;;;;;;2.93;1.57;;;5.40;37.30;;;;;;4982362;28;20998;-68
2022/11/23 08:36:18;;;;;;;2.30;1.37;;;5.40;1.00;;;;;;4975042;28;20896;-68
2022/11/23 08:38:44;;;;;;;0.93;0.77;;;5.40;1.00;;;;;;4986084;28;20488;-68
2022/11/23 08:41:11;;;;;;;2.87;1.70;;;5.60;1.00;;;;;;4987321;28;20971;-68
2022/11/23 08:43:38;;;;;;;1.40;1.00;;;5.60;1.00;;;;;;4984344;28;20898;-70
2022/11/23 08:46:06;;;;;;;1.20;1.07;;;5.70;1.00;;;;;;4980187;28;20456;-69
2022/11/23 08:48:33;;;;;;;1.37;1.27;;;5.70;1.00;;;;;;4984348;28;20460;-68
2022/11/23 08:51:00;;;;;;;3.00;1.60;;;6.00;1.00;;;;;;4978910;28;20545;-68
2022/11/23 08:53:27;;;;;;;1.80;1.20;;;6.10;1.00;;;;;;4984456;28;20485;-68
2022/11/23 08:55:54;;;;;;;3.53;1.40;;;6.10;1.00;;;;;;4978728;28;20540;-68
2022/11/23 08:58:20;;;;;;;3.87;1.20;;;6.30;99.90;;;;;;4984752;28;20465;-68
2022/11/23 09:00:47;;;;;;;2.50;1.27;;;6.30;99.90;;;;;;4982867;28;20453;-68
2022/11/23 09:03:16;;;;;;;7.83;1.60;;;6.30;99.90;;;;;;4983954;28;20491;-68
2022/11/23 09:05:42;;;;;;;3.33;1.37;;;6.30;1.00;;;;;;4987174;28;20965;-70
2022/11/23 09:08:09;;;;;;;2.13;1.37;;;6.40;1.00;;;;;;4979367;28;20540;-68
2022/11/23 09:10:36;;;;;;;2.13;1.17;;;;;;;;;;4990013;28;20486;-69
2022/11/23 09:13:04;;;;;;;3.30;1.07;;;;;;;;;;4986158;28;20487;-68
2022/11/23 09:15:31;;;;;;;1.63;1.27;;;;;;;;;;4976387;28;20458;-68
2022/11/23 09:17:58;;;;;;;2.00;1.00;;;;;;;;;;4986287;28;20451;-68
2022/11/23 09:20:27;;;;;;;1.00;0.90;;;;;;;;;;4976518;28;20456;-69
2022/11/23 09:22:54;;;;;;;2.00;1.20;;;;;;;;;;4986790;28;20455;-68
2022/11/23 09:25:22;;;;;;;1.73;0.87;;;;;;;;;;4975343;28;20459;-68
2022/11/23 09:27:49;;;;;;;5.17;1.00;;;6.50;99.90;;;;;;4986533;28;20465;-68
2022/11/23 09:30:17;;;;;;;2.20;0.90;;;7.20;99.90;;;;;;4975388;28;20460;-68
2022/11/23 09:32:44;;;;;;;7.50;1.23;;;7.10;99.90;;;;;;4987353;28;20457;-68
2022/11/23 09:35:10;;;;;;;1.90;1.00;;;7.20;99.90;;;;;;4974649;28;20458;-68
2022/11/23 09:37:39;;;;;;;4.10;1.07;;;7.20;54.00;;;;;;4987961;28;20453;-68
2022/11/23 09:40:08;;;;;;;3.03;1.10;;;7.30;40.20;;;;;;4979657;28;20477;-68
2022/11/23 09:42:53;;;;;;;5.70;1.60;;;7.40;27.00;;;;;;4981167;28;20479;-68
2022/11/23 09:45:27;;;;;;;2.90;0.80;;;7.50;48.40;;;;;;4983679;28;20493;-69
2022/11/23 09:48:24;;;;;;;8.90;1.30;;;7.60;1.00;;;;;;4977976;28;20456;-69
2022/11/23 09:50:56;;;;;;;2.93;0.90;;;7.70;1.00;;;;;;4978099;28;20459;-68
2022/11/23 09:53:29;;;;;;;3.80;1.30;;;7.60;1.00;;;;;;4984279;28;20484;-68
2022/11/23 09:55:57;;;;;;;1.20;0.90;;;7.60;1.00;;;;;;4976108;28;20469;-68
2022/11/23 09:58:30;;;;;;;2.73;0.97;;;7.60;1.00;;;;;;4985398;28;20799;-68
2022/11/23 10:01:01;;;;;;;2.80;1.00;;;7.70;1.00;;;;;;4980541;28;20464;-70
2022/11/23 10:03:29;;;;;;;2.00;0.93;;;7.70;1.00;;;;;;4981404;28;20511;-68
2022/11/23 10:06:02;;;;;;;1.27;0.67;;;7.90;1.00;;;;;;4986467;28;20845;-70
2022/11/23 10:08:38;;;;;;;0.93;0.73;;;7.90;1.00;;;;;;4981000;28;20559;-69
2022/11/23 10:11:23;;;;;;;1.43;0.60;;;7.90;1.00;;;;;;4985965;28;20443;-69
2022/11/23 10:13:57;;;;;;;2.60;1.27;;;8.00;1.00;;;;;;4986085;28;20480;-68
2022/11/23 10:16:35;;;;;;;3.03;0.70;;;8.00;1.00;;;;;;4973932;28;20453;-68
2022/11/23 10:19:11;;;;;;;1.20;0.53;;;8.00;1.00;;;;;;4980195;28;20462;-68
2022/11/23 10:21:45;;;;;;;1.43;0.77;;;8.00;1.00;;;;;;4978745;28;20458;-68
2022/11/23 10:24:19;;;;;;;4.43;0.93;;;8.00;1.00;;;;;;4982791;28;20453;-68
2022/11/23 10:26:48;;;;;;;2.33;1.50;;;8.10;1.00;;;;;;4976616;28;20465;-68
2022/11/23 10:29:20;;;;;;;0.70;0.50;;;8.10;1.00;;;;;;4985623;28;20467;-69
2022/11/23 10:31:48;;;;;;;2.20;1.20;;;8.20;1.00;;;;;;4976614;28;20453;-69
2022/11/23 10:34:21;;;;;;;1.10;1.00;;;8.30;1.00;;;;;;4988561;28;20510;-69
2022/11/23 10:36:48;;;;;;;2.13;0.77;;;8.40;1.00;;;;;;4977202;28;20508;-68
2022/11/23 10:39:21;;;;;;;3.00;0.90;;;8.40;1.00;;;;;;4991415;28;20460;-69
2022/11/23 10:41:49;;;;;;;1.07;0.90;;;8.50;1.00;;;;;;4990761;28;20442;-69
2022/11/23 10:44:28;;;;;;;3.93;0.90;;;8.60;1.00;;;;;;4992302;28;20461;-69
2022/11/23 10:46:55;;;;;;;2.77;0.87;;;8.70;99.90;;;;;;4979798;28;20512;-68
2022/11/23 10:49:25;;;;;;;2.00;1.20;;;8.70;99.90;;;;;;4993746;28;20450;-69
2022/11/23 10:51:54;;;;;;;2.27;0.87;;;8.80;99.90;;;;;;4980083;28;20482;-69
2022/11/23 10:54:27;;;;;;;1.47;1.10;;;8.80;99.90;;;;;;4993384;28;20597;-68
2022/11/23 10:56:54;;;;;;;1.60;0.90;;;8.80;99.90;;;;;;4979790;28;20481;-68
2022/11/23 10:59:30;;;;;;;1.30;1.00;;;8.90;99.90;;;;;;4990758;28;20481;-68
2022/11/23 11:02:15;;;;;;;5.63;1.40;;;8.90;99.90;;;;;;4986056;28;20817;-68
2022/11/23 11:04:42;;;;;;;1.77;1.10;;;8.90;99.90;;;;;;4981752;28;20535;-68
2022/11/23 11:07:18;;;;;;;2.67;1.40;;;9.00;99.90;;;;;;4976977;28;20547;-69
2022/11/23 11:09:50;;;;;;;4.73;0.77;;;;;;;;;;4989065;28;20464;-68
2022/11/23 11:12:18;;;;;;;2.40;0.90;;;;;;;;;;4978929;28;20858;-69
2022/11/23 11:14:56;;;;;;;2.77;1.40;;;;;;;;;;4979545;28;21024;-69
2022/11/23 11:17:27;;;;;;;3.27;1.73;;;;;;;;;;4973033;28;20455;-70
2022/11/23 11:19:54;;;;;;;1.23;0.90;;;;;;;;;;4984661;28;20453;-68
2022/11/23 11:22:34;;;;;;;1.00;0.90;;;;;;;;;;4972737;28;20458;-69
2022/11/23 11:25:04;;;;;;;2.40;1.00;;;;;;;;;;4984801;28;20589;-69
2022/11/23 11:27:31;;;;;;;3.27;1.97;;;;;;;;;;4982563;28;20454;-68
2022/11/23 11:30:02;;;;;;;1.63;0.80;;;;;;;;;;4977881;28;20465;-68
2022/11/23 11:32:30;;;;;;;0.87;0.60;;;;;;;;;;4981212;28;21018;-69
2022/11/23 11:35:01;;;;;;;2.30;0.80;;;;;;;;;;4975203;28;21001;-69
2022/11/23 11:37:32;;;;;;;2.40;1.00;;;;;;;;;;4981034;28;20449;-69
2022/11/23 11:40:03;;;;;;;1.10;0.90;;;;;;;;;;4975838;28;20839;-68
2022/11/23 11:42:35;;;;;;;0.93;0.77;;;;;;;;;;4979457;28;20460;-69
2022/11/23 11:45:03;;;;;;;1.43;0.80;;;;;;;;;;4978362;28;20455;-69
2022/11/23 11:47:32;;;;;;;5.73;1.50;;;;;;;;;;4978688;28;20461;-70
2022/11/23 11:50:01;;;;;;;2.17;1.30;;;;;;;;;;4979461;28;20726;-69
2022/11/23 11:52:31;;;;;;;2.20;1.23;;;;;;;;;;4977357;28;20457;-69
2022/11/23 11:55:02;;;;;;;2.90;1.23;;;;;;;;;;4979935;28;20487;-69
2022/11/23 11:57:32;;;;;;;3.33;1.40;;;;;;;;;;4976113;28;20456;-69
2022/11/23 12:00:01;;;;;;;3.23;1.20;;;;;;;;;;4981839;28;20782;-69
2022/11/23 12:02:30;;;;;;;1.43;1.10;;;;;;;;;;4991929;28;20481;-69
2022/11/23 12:05:00;;;;;;;1.40;0.90;;;;;;;;;;4979839;28;20459;-69
2022/11/23 12:07:29;;;;;;;1.03;0.80;;;;;;;;;;4977418;28;20448;-69
2022/11/23 12:10:01;;;;;;;1.33;0.77;;;;;;;;;;4976585;28;20813;-69
2022/11/23 12:12:28;;;;;;;1.63;1.07;;;;;;;;;;4991514;28;20921;-69
2022/11/23 12:14:57;;;;;;;2.90;1.10;;;;;;;;;;4990731;28;20488;-69
2022/11/23 12:17:34;;;;;;;2.80;1.70;;;;;;;;;;4979034;28;20460;-69
2022/11/23 12:20:06;;;;;;;2.03;1.03;;;;;;;;;;4979621;28;20531;-70
2022/11/23 12:22:36;;;;;;;1.80;0.83;;;;;;;;;;4988644;28;20937;-70
2022/11/23 12:25:10;;;;;;;1.30;1.03;;;;;;;;;;4980278;28;20550;-69
2022/11/23 12:27:40;;;;;;;5.80;0.83;;;;;;;;;;4987929;28;20443;-69
2022/11/23 12:30:27;;;;;;;1.50;0.93;;;;;;;;;;4978564;28;20465;-69
2022/11/23 12:33:14;;;;;;;1.20;0.77;;;;;;;;;;4986286;28;20551;-69
2022/11/23 12:35:54;;;;;;;1.10;0.83;;;;;;;;;;4977758;28;20489;-69
2022/11/23 12:38:27;;;;;;;1.37;0.67;;;;;;;;;;4991634;28;20851;-69
2022/11/23 12:40:59;;;;;;;1.10;0.40;;;;;;;;;;4989214;28;20496;-69
2022/11/23 12:43:29;;;;;;;2.20;1.43;;;;;;;;;;4984800;28;20453;-69
2022/11/23 12:46:10;;;;;;;1.70;0.70;;;;;;;;;;4984154;28;20460;-69
2022/11/23 12:48:56;;;;;;;0.90;0.70;;;;;;;;;;4987814;28;20446;-69
2022/11/23 12:51:25;;;;;;;1.00;0.60;;;;;;;;;;4979604;28;20475;-69
2022/11/23 12:53:59;;;;;;;1.43;0.80;;;;;;;;;;4989650;28;20458;-69
2022/11/23 12:56:30;;;;;;;1.00;0.60;;;;;;;;;;4991024;28;20460;-69
2022/11/23 12:58:58;;;;;;;1.17;0.50;;;;;;;;;;4978616;28;20448;-69
2022/11/23 13:01:30;;;;;;;0.80;0.70;;;;;;;;;;4997736;28;20486;-69
2022/11/23 13:04:09;;;;;;;1.63;0.53;;;;;;;;;;4993881;28;20551;-69
2022/11/23 13:06:48;;;;;;;0.73;0.50;;;;;;;;;;4978523;28;20460;-69
2022/11/23 13:09:24;;;;;;;0.90;0.50;;;;;;;;;;4984815;28;20464;-69
2022/11/23 13:12:00;;;;;;;1.00;0.60;;;;;;;;;;4983309;28;20543;-69
2022/11/23 13:14:30;;;;;;;1.43;0.60;;;;;;;;;;4988290;28;20550;-69
2022/11/23 13:17:07;;;;;;;1.30;0.70;;;;;;;;;;4980671;28;20453;-69
2022/11/23 13:19:42;;;;;;;2.40;0.60;;;;;;;;;;4987002;28;20468;-69
2022/11/23 13:22:11;;;;;;;2.60;0.70;;;;;;;;;;4981647;28;20454;-69
2022/11/23 13:24:40;;;;;;;1.10;0.80;;;;;;;;;;4981266;28;20473;-69
2022/11/23 13:27:26;;;;;;;1.83;0.90;;;;;;;;;;4975381;28;20460;-69